<?xml version="1.0" encoding="UTF-8" standalone="no" ?>
<gpx xmlns="http://www.topografix.com/GPX/1/1" xmlns:xsi="http://www.w3.org/2001/XMLSchema-instance" xsi:schemaLocation="http://www.topografix.com/GPX/1/1 http://www.topografix.com/GPX/1/1/gpx.xsd" version="1.1" creator="VisuGPX - https://www.visugpx.com">
  <metadata>
    <name>Malorum</name>
    <desc><![CDATA[15 Km Dénivelé: 550 m IBP: 63]]></desc>
  </metadata>
  <trk>
    <name><![CDATA[malorum 15km x 550m]]></name>
    <extensions>
      <line xmlns="http://www.topografix.com/GPX/gpx_style/0/2">
        <width>5</width>
      </line>
    </extensions>
    <trkseg>
      <trkpt lat="45.30619" lon="4.11518">
        <ele>443.1</ele>
        <time>2025-12-02T19:48:51.285Z</time>
      </trkpt>
      <trkpt lat="45.30619" lon="4.11518">
        <ele>443.1</ele>
        <time>2025-12-30T08:59:40.152Z</time>
      </trkpt>
      <trkpt lat="45.30619" lon="4.11518">
        <ele>443.1</ele>
        <time>2025-12-30T10:51:03.603Z</time>
      </trkpt>
      <trkpt lat="45.30597" lon="4.1141">
        <ele>446.8</ele>
      </trkpt>
      <trkpt lat="45.30657" lon="4.11351">
        <ele>448.2</ele>
      </trkpt>
      <trkpt lat="45.30731" lon="4.11314">
        <ele>450.1</ele>
      </trkpt>
      <trkpt lat="45.30816" lon="4.11282">
        <ele>451.9</ele>
      </trkpt>
      <trkpt lat="45.30826" lon="4.11217">
        <ele>453.2</ele>
      </trkpt>
      <trkpt lat="45.30847" lon="4.11107">
        <ele>455</ele>
      </trkpt>
      <trkpt lat="45.30894" lon="4.1112">
        <ele>456</ele>
      </trkpt>
      <trkpt lat="45.30964" lon="4.11041">
        <ele>459.2</ele>
      </trkpt>
      <trkpt lat="45.30992" lon="4.10973">
        <ele>462.2</ele>
      </trkpt>
      <trkpt lat="45.31008" lon="4.10928">
        <ele>465</ele>
      </trkpt>
      <trkpt lat="45.31074" lon="4.10933">
        <ele>468.6</ele>
      </trkpt>
      <trkpt lat="45.31127" lon="4.10932">
        <ele>470.1</ele>
      </trkpt>
      <trkpt lat="45.3116" lon="4.10906">
        <ele>472.2</ele>
      </trkpt>
      <trkpt lat="45.31161" lon="4.10862">
        <ele>473.8</ele>
      </trkpt>
      <trkpt lat="45.31161" lon="4.10862">
        <ele>473.8</ele>
        <time>2025-12-02T19:48:51.285Z</time>
      </trkpt>
      <trkpt lat="45.31265" lon="4.10715">
        <ele>487.9</ele>
        <time>2025-12-02T19:51:19.352Z</time>
      </trkpt>
      <trkpt lat="45.31329" lon="4.10655">
        <ele>498.6</ele>
        <time>2025-12-02T19:52:36.402Z</time>
      </trkpt>
      <trkpt lat="45.31396" lon="4.10557">
        <ele>503.2</ele>
        <time>2025-12-02T19:54:12.820Z</time>
      </trkpt>
      <trkpt lat="45.31442" lon="4.10496">
        <ele>510.4</ele>
        <time>2025-12-02T19:55:15.764Z</time>
      </trkpt>
      <trkpt lat="45.31433" lon="4.10469">
        <ele>513.8</ele>
        <time>2025-12-02T19:55:36.956Z</time>
      </trkpt>
      <trkpt lat="45.3133" lon="4.10453">
        <ele>528.1</ele>
        <time>2025-12-02T19:57:21.751Z</time>
      </trkpt>
      <trkpt lat="45.3126" lon="4.10432">
        <ele>539.3</ele>
        <time>2025-12-02T19:58:33.846Z</time>
      </trkpt>
      <trkpt lat="45.31198" lon="4.10443">
        <ele>531.2</ele>
        <time>2025-12-02T19:59:36.560Z</time>
      </trkpt>
      <trkpt lat="45.31127" lon="4.10416">
        <ele>531.2</ele>
        <time>2025-12-02T20:00:49.668Z</time>
      </trkpt>
      <trkpt lat="45.31082" lon="4.10383">
        <ele>533.5</ele>
        <time>2025-12-02T20:01:41.138Z</time>
      </trkpt>
      <trkpt lat="45.31058" lon="4.10333">
        <ele>539.8</ele>
        <time>2025-12-02T20:02:23.891Z</time>
      </trkpt>
      <trkpt lat="45.31002" lon="4.10291">
        <ele>539.8</ele>
        <time>2025-12-02T20:03:26.907Z</time>
      </trkpt>
      <trkpt lat="45.30881" lon="4.10219">
        <ele>537.2</ele>
        <time>2025-12-02T20:05:38.314Z</time>
      </trkpt>
      <trkpt lat="45.30943" lon="4.10175">
        <ele>556.8</ele>
        <time>2025-12-02T20:06:50.285Z</time>
      </trkpt>
      <trkpt lat="45.30954" lon="4.10123">
        <ele>572</ele>
        <time>2025-12-02T20:07:30.512Z</time>
      </trkpt>
      <trkpt lat="45.31057" lon="4.10146">
        <ele>585</ele>
        <time>2025-12-02T20:09:15.625Z</time>
      </trkpt>
      <trkpt lat="45.31184" lon="4.10106">
        <ele>628.2</ele>
        <time>2025-12-02T20:11:32.203Z</time>
      </trkpt>
      <trkpt lat="45.31233" lon="4.10184">
        <ele>611.2</ele>
        <time>2025-12-02T20:12:47.342Z</time>
      </trkpt>
      <trkpt lat="45.31287" lon="4.1021">
        <ele>591.2</ele>
        <time>2025-12-02T20:13:46.758Z</time>
      </trkpt>
      <trkpt lat="45.31328" lon="4.10181">
        <ele>577.5</ele>
        <time>2025-12-02T20:14:34.394Z</time>
      </trkpt>
      <trkpt lat="45.31347" lon="4.10114">
        <ele>590.3</ele>
        <time>2025-12-02T20:15:26.622Z</time>
      </trkpt>
      <trkpt lat="45.31391" lon="4.10031">
        <ele>607.9</ele>
        <time>2025-12-02T20:16:41.272Z</time>
      </trkpt>
      <trkpt lat="45.3142" lon="4.09941">
        <ele>617.2</ele>
        <time>2025-12-02T20:17:51.342Z</time>
      </trkpt>
      <trkpt lat="45.31522" lon="4.09856">
        <ele>632.9</ele>
        <time>2025-12-02T20:19:50.932Z</time>
      </trkpt>
      <trkpt lat="45.31595" lon="4.09799">
        <ele>640.5</ele>
        <time>2025-12-02T20:21:14.264Z</time>
      </trkpt>
      <trkpt lat="45.31628" lon="4.09802">
        <ele>633.2</ele>
        <time>2025-12-02T20:21:48.118Z</time>
      </trkpt>
      <trkpt lat="45.31668" lon="4.0983">
        <ele>613.5</ele>
        <time>2025-12-02T20:22:36.210Z</time>
      </trkpt>
      <trkpt lat="45.31739" lon="4.09805">
        <ele>611.4</ele>
        <time>2025-12-02T20:23:49.522Z</time>
      </trkpt>
      <trkpt lat="45.318" lon="4.09779">
        <ele>617.9</ele>
        <time>2025-12-02T20:24:53.814Z</time>
      </trkpt>
      <trkpt lat="45.31851" lon="4.09712">
        <ele>625.5</ele>
        <time>2025-12-02T20:26:03.605Z</time>
      </trkpt>
      <trkpt lat="45.31933" lon="4.09711">
        <ele>630.7</ele>
        <time>2025-12-02T20:27:25.408Z</time>
      </trkpt>
      <trkpt lat="45.31987" lon="4.09695">
        <ele>643.3</ele>
        <time>2025-12-02T20:28:22.088Z</time>
      </trkpt>
      <trkpt lat="45.32024" lon="4.09655">
        <ele>649.1</ele>
        <time>2025-12-02T20:29:09.161Z</time>
      </trkpt>
      <trkpt lat="45.32078" lon="4.09576">
        <ele>658.4</ele>
        <time>2025-12-02T20:30:26.657Z</time>
      </trkpt>
      <trkpt lat="45.3213" lon="4.09535">
        <ele>674.7</ele>
        <time>2025-12-02T20:31:27.991Z</time>
      </trkpt>
      <trkpt lat="45.32157" lon="4.09502">
        <ele>682.1</ele>
        <time>2025-12-02T20:32:04.008Z</time>
      </trkpt>
      <trkpt lat="45.3216" lon="4.09463">
        <ele>681.6</ele>
        <time>2025-12-02T20:32:32.012Z</time>
      </trkpt>
      <trkpt lat="45.32177" lon="4.09452">
        <ele>686.7</ele>
        <time>2025-12-02T20:32:51.786Z</time>
      </trkpt>
      <trkpt lat="45.32201" lon="4.09451">
        <ele>693.5</ele>
        <time>2025-12-02T20:33:16.571Z</time>
      </trkpt>
      <trkpt lat="45.32258" lon="4.09356">
        <ele>702.7</ele>
        <time>2025-12-02T20:34:44.090Z</time>
      </trkpt>
      <trkpt lat="45.32279" lon="4.09355">
        <ele>701.5</ele>
        <time>2025-12-02T20:35:05.464Z</time>
      </trkpt>
      <trkpt lat="45.32289" lon="4.09325">
        <ele>700</ele>
        <time>2025-12-02T20:35:28.255Z</time>
      </trkpt>
      <trkpt lat="45.32304" lon="4.09307">
        <ele>698.3</ele>
        <time>2025-12-02T20:35:48.244Z</time>
      </trkpt>
      <trkpt lat="45.32334" lon="4.09176">
        <ele>695.1</ele>
        <time>2025-12-02T20:37:25.095Z</time>
      </trkpt>
      <trkpt lat="45.32355" lon="4.09055">
        <ele>696.8</ele>
        <time>2025-12-02T20:38:52.507Z</time>
      </trkpt>
      <trkpt lat="45.32365" lon="4.08954">
        <ele>707.3</ele>
        <time>2025-12-02T20:40:05.159Z</time>
      </trkpt>
      <trkpt lat="45.32381" lon="4.08883">
        <ele>716.8</ele>
        <time>2025-12-02T20:40:58.022Z</time>
      </trkpt>
      <trkpt lat="45.3238" lon="4.08777">
        <ele>730.3</ele>
        <time>2025-12-02T20:42:14.008Z</time>
      </trkpt>
      <trkpt lat="45.32373" lon="4.08688">
        <ele>741</ele>
        <time>2025-12-02T20:43:17.452Z</time>
      </trkpt>
      <trkpt lat="45.32349" lon="4.08589">
        <ele>752.9</ele>
        <time>2025-12-02T20:44:31.752Z</time>
      </trkpt>
      <trkpt lat="45.32307" lon="4.08508">
        <ele>764.9</ele>
        <time>2025-12-02T20:45:43.208Z</time>
      </trkpt>
      <trkpt lat="45.32271" lon="4.08429">
        <ele>777.1</ele>
        <time>2025-12-02T20:46:50.300Z</time>
      </trkpt>
      <trkpt lat="45.32254" lon="4.08357">
        <ele>786.1</ele>
        <time>2025-12-02T20:47:44.251Z</time>
      </trkpt>
      <trkpt lat="45.32252" lon="4.08284">
        <ele>787.4</ele>
        <time>2025-12-02T20:48:35.880Z</time>
      </trkpt>
      <trkpt lat="45.32256" lon="4.08221">
        <ele>785.9</ele>
        <time>2025-12-02T20:49:20.154Z</time>
      </trkpt>
      <trkpt lat="45.32264" lon="4.0814">
        <ele>785.8</ele>
        <time>2025-12-02T20:50:17.966Z</time>
      </trkpt>
      <trkpt lat="45.32255" lon="4.08033">
        <ele>794.9</ele>
        <time>2025-12-02T20:51:34.050Z</time>
      </trkpt>
      <trkpt lat="45.3225" lon="4.07992">
        <ele>798.5</ele>
        <time>2025-12-02T20:52:03.486Z</time>
      </trkpt>
      <trkpt lat="45.32266" lon="4.07869">
        <ele>806.2</ele>
        <time>2025-12-02T20:53:32.064Z</time>
      </trkpt>
      <trkpt lat="45.32178" lon="4.07825">
        <ele>810.4</ele>
        <time>2025-12-02T20:55:05.321Z</time>
      </trkpt>
      <trkpt lat="45.32129" lon="4.07823">
        <ele>808.6</ele>
        <time>2025-12-02T20:55:54.293Z</time>
      </trkpt>
      <trkpt lat="45.32037" lon="4.07859">
        <ele>802.7</ele>
        <time>2025-12-02T20:57:29.563Z</time>
      </trkpt>
      <trkpt lat="45.32012" lon="4.07955">
        <ele>792.3</ele>
        <time>2025-12-02T20:58:41.882Z</time>
      </trkpt>
      <trkpt lat="45.31982" lon="4.08004">
        <ele>787.5</ele>
        <time>2025-12-02T20:59:27.852Z</time>
      </trkpt>
      <trkpt lat="45.31968" lon="4.08109">
        <ele>779</ele>
        <time>2025-12-02T21:00:43.682Z</time>
      </trkpt>
      <trkpt lat="45.31939" lon="4.08159">
        <ele>776.4</ele>
        <time>2025-12-02T21:01:28.831Z</time>
      </trkpt>
      <trkpt lat="45.31881" lon="4.08163">
        <ele>778.9</ele>
        <time>2025-12-02T21:02:27.391Z</time>
      </trkpt>
      <trkpt lat="45.31831" lon="4.08172">
        <ele>779.4</ele>
        <time>2025-12-02T21:03:18.102Z</time>
      </trkpt>
      <trkpt lat="45.31799" lon="4.08212">
        <ele>774.1</ele>
        <time>2025-12-02T21:04:01.218Z</time>
      </trkpt>
      <trkpt lat="45.31787" lon="4.08281">
        <ele>768.4</ele>
        <time>2025-12-02T21:04:51.431Z</time>
      </trkpt>
      <trkpt lat="45.31798" lon="4.08401">
        <ele>765.7</ele>
        <time>2025-12-02T21:06:16.627Z</time>
      </trkpt>
      <trkpt lat="45.31808" lon="4.08459">
        <ele>767.2</ele>
        <time>2025-12-02T21:06:58.355Z</time>
      </trkpt>
      <trkpt lat="45.31769" lon="4.08674">
        <ele>762.4</ele>
        <time>2025-12-02T21:09:34.946Z</time>
      </trkpt>
      <trkpt lat="45.31783" lon="4.08852">
        <ele>759.1</ele>
        <time>2025-12-02T21:11:40.939Z</time>
      </trkpt>
      <trkpt lat="45.3173" lon="4.0889">
        <ele>764.6</ele>
        <time>2025-12-02T21:12:40.730Z</time>
      </trkpt>
      <trkpt lat="45.31717" lon="4.08771">
        <ele>770.2</ele>
        <time>2025-12-02T21:14:05.849Z</time>
      </trkpt>
      <trkpt lat="45.31668" lon="4.08706">
        <ele>778</ele>
        <time>2025-12-02T21:15:13.660Z</time>
      </trkpt>
      <trkpt lat="45.31638" lon="4.08763">
        <ele>777.4</ele>
        <time>2025-12-02T21:16:03.695Z</time>
      </trkpt>
      <trkpt lat="45.31583" lon="4.08814">
        <ele>781</ele>
        <time>2025-12-02T21:17:10.074Z</time>
      </trkpt>
      <trkpt lat="45.31539" lon="4.08906">
        <ele>777.3</ele>
        <time>2025-12-02T21:18:28.446Z</time>
      </trkpt>
      <trkpt lat="45.31514" lon="4.08917">
        <ele>778.2</ele>
        <time>2025-12-02T21:18:54.862Z</time>
      </trkpt>
      <trkpt lat="45.31458" lon="4.09018">
        <ele>770.5</ele>
        <time>2025-12-02T21:20:25.744Z</time>
      </trkpt>
      <trkpt lat="45.31424" lon="4.09102">
        <ele>768</ele>
        <time>2025-12-02T21:21:33.804Z</time>
      </trkpt>
      <trkpt lat="45.31396" lon="4.09162">
        <ele>763.3</ele>
        <time>2025-12-02T21:22:25.016Z</time>
      </trkpt>
      <trkpt lat="45.31379" lon="4.09194">
        <ele>759</ele>
        <time>2025-12-02T21:22:53.092Z</time>
      </trkpt>
      <trkpt lat="45.3136" lon="4.09203">
        <ele>758.8</ele>
        <time>2025-12-02T21:23:13.057Z</time>
      </trkpt>
      <trkpt lat="45.31317" lon="4.09106">
        <ele>770</ele>
        <time>2025-12-02T21:24:34.376Z</time>
      </trkpt>
      <trkpt lat="45.31307" lon="4.09061">
        <ele>770.7</ele>
        <time>2025-12-02T21:25:07.697Z</time>
      </trkpt>
      <trkpt lat="45.31307" lon="4.08991">
        <ele>769.5</ele>
        <time>2025-12-02T21:25:57.175Z</time>
      </trkpt>
      <trkpt lat="45.31321" lon="4.08897">
        <ele>768.1</ele>
        <time>2025-12-02T21:27:04.541Z</time>
      </trkpt>
      <trkpt lat="45.31302" lon="4.08873">
        <ele>764.1</ele>
        <time>2025-12-02T21:27:29.734Z</time>
      </trkpt>
      <trkpt lat="45.31249" lon="4.08886">
        <ele>756.4</ele>
        <time>2025-12-02T21:28:24.949Z</time>
      </trkpt>
      <trkpt lat="45.31195" lon="4.08893">
        <ele>753.1</ele>
        <time>2025-12-02T21:29:18.966Z</time>
      </trkpt>
      <trkpt lat="45.31174" lon="4.08853">
        <ele>758.4</ele>
        <time>2025-12-02T21:29:54.126Z</time>
      </trkpt>
      <trkpt lat="45.31185" lon="4.08793">
        <ele>767.6</ele>
        <time>2025-12-02T21:30:38.508Z</time>
      </trkpt>
      <trkpt lat="45.31135" lon="4.08742">
        <ele>767</ele>
        <time>2025-12-02T21:31:39.765Z</time>
      </trkpt>
      <trkpt lat="45.3111" lon="4.08694">
        <ele>764.7</ele>
        <time>2025-12-02T21:32:22.134Z</time>
      </trkpt>
      <trkpt lat="45.31065" lon="4.08521">
        <ele>753.7</ele>
        <time>2025-12-02T21:34:32.203Z</time>
      </trkpt>
      <trkpt lat="45.3104" lon="4.0849">
        <ele>750.4</ele>
        <time>2025-12-02T21:35:05.737Z</time>
      </trkpt>
      <trkpt lat="45.31039" lon="4.08435">
        <ele>751</ele>
        <time>2025-12-02T21:35:44.036Z</time>
      </trkpt>
      <trkpt lat="45.31009" lon="4.08419">
        <ele>748.8</ele>
        <time>2025-12-02T21:36:15.803Z</time>
      </trkpt>
      <trkpt lat="45.30972" lon="4.08454">
        <ele>745</ele>
        <time>2025-12-02T21:37:00.773Z</time>
      </trkpt>
      <trkpt lat="45.30916" lon="4.08553">
        <ele>734.4</ele>
        <time>2025-12-02T21:38:30.515Z</time>
      </trkpt>
      <trkpt lat="45.30879" lon="4.08551">
        <ele>741.4</ele>
        <time>2025-12-02T21:39:08.098Z</time>
      </trkpt>
      <trkpt lat="45.30837" lon="4.08638">
        <ele>739.2</ele>
        <time>2025-12-02T21:40:22.558Z</time>
      </trkpt>
      <trkpt lat="45.30802" lon="4.08735">
        <ele>729.8</ele>
        <time>2025-12-02T21:41:39.554Z</time>
      </trkpt>
      <trkpt lat="45.30762" lon="4.08785">
        <ele>729.1</ele>
        <time>2025-12-02T21:42:32.476Z</time>
      </trkpt>
      <trkpt lat="45.30653" lon="4.08807">
        <ele>735.5</ele>
        <time>2025-12-02T21:44:22.901Z</time>
      </trkpt>
      <trkpt lat="45.30564" lon="4.08826">
        <ele>734.5</ele>
        <time>2025-12-02T21:45:52.688Z</time>
      </trkpt>
      <trkpt lat="45.30458" lon="4.08904">
        <ele>724.8</ele>
        <time>2025-12-02T21:47:53.342Z</time>
      </trkpt>
      <trkpt lat="45.30403" lon="4.08943">
        <ele>715.5</ele>
        <time>2025-12-02T21:48:55.028Z</time>
      </trkpt>
      <trkpt lat="45.30342" lon="4.09143">
        <ele>684.7</ele>
        <time>2025-12-02T21:51:31.126Z</time>
      </trkpt>
      <trkpt lat="45.30275" lon="4.09131">
        <ele>689.8</ele>
        <time>2025-12-02T21:52:38.749Z</time>
      </trkpt>
      <trkpt lat="45.30213" lon="4.09096">
        <ele>689.8</ele>
        <time>2025-12-02T21:53:45.425Z</time>
      </trkpt>
      <trkpt lat="45.30182" lon="4.09059">
        <ele>686.4</ele>
        <time>2025-12-02T21:54:26.397Z</time>
      </trkpt>
      <trkpt lat="45.30138" lon="4.09013">
        <ele>679</ele>
        <time>2025-12-02T21:55:21.640Z</time>
      </trkpt>
      <trkpt lat="45.30008" lon="4.09051">
        <ele>659</ele>
        <time>2025-12-02T21:57:35.595Z</time>
      </trkpt>
      <trkpt lat="45.30006" lon="4.09081">
        <ele>658.6</ele>
        <time>2025-12-02T21:57:56.661Z</time>
      </trkpt>
      <trkpt lat="45.3004" lon="4.09178">
        <ele>649.8</ele>
        <time>2025-12-02T21:59:13.804Z</time>
      </trkpt>
      <trkpt lat="45.30019" lon="4.09213">
        <ele>640.7</ele>
        <time>2025-12-02T21:59:46.758Z</time>
      </trkpt>
      <trkpt lat="45.3002" lon="4.09263">
        <ele>630.9</ele>
        <time>2025-12-02T22:00:23.264Z</time>
      </trkpt>
      <trkpt lat="45.30016" lon="4.09284">
        <ele>625.9</ele>
        <time>2025-12-02T22:00:39.105Z</time>
      </trkpt>
      <trkpt lat="45.30037" lon="4.09337">
        <ele>618.3</ele>
        <time>2025-12-02T22:01:23.072Z</time>
      </trkpt>
      <trkpt lat="45.29975" lon="4.09374">
        <ele>601.8</ele>
        <time>2025-12-02T22:02:32.147Z</time>
      </trkpt>
      <trkpt lat="45.29959" lon="4.09359">
        <ele>602.9</ele>
        <time>2025-12-02T22:02:51.494Z</time>
      </trkpt>
      <trkpt lat="45.29951" lon="4.09315">
        <ele>609.6</ele>
        <time>2025-12-02T22:03:23.397Z</time>
      </trkpt>
      <trkpt lat="45.29926" lon="4.09267">
        <ele>614.6</ele>
        <time>2025-12-02T22:04:06.043Z</time>
      </trkpt>
      <trkpt lat="45.29824" lon="4.0934">
        <ele>590.1</ele>
        <time>2025-12-02T22:06:01.486Z</time>
      </trkpt>
      <trkpt lat="45.29756" lon="4.09402">
        <ele>585.4</ele>
        <time>2025-12-02T22:07:22.808Z</time>
      </trkpt>
      <trkpt lat="45.29715" lon="4.09401">
        <ele>584.7</ele>
        <time>2025-12-02T22:08:03.855Z</time>
      </trkpt>
      <trkpt lat="45.29674" lon="4.0938">
        <ele>585.7</ele>
        <time>2025-12-02T22:08:47.272Z</time>
      </trkpt>
      <trkpt lat="45.29629" lon="4.09382">
        <ele>581.3</ele>
        <time>2025-12-02T22:09:32.789Z</time>
      </trkpt>
      <trkpt lat="45.29584" lon="4.09428">
        <ele>569.9</ele>
        <time>2025-12-02T22:10:29.247Z</time>
      </trkpt>
      <trkpt lat="45.29557" lon="4.09491">
        <ele>560.5</ele>
        <time>2025-12-02T22:11:21.842Z</time>
      </trkpt>
      <trkpt lat="45.29527" lon="4.09588">
        <ele>549.6</ele>
        <time>2025-12-02T22:12:36.998Z</time>
      </trkpt>
      <trkpt lat="45.29488" lon="4.09699">
        <ele>538.5</ele>
        <time>2025-12-02T22:14:05.251Z</time>
      </trkpt>
      <trkpt lat="45.29452" lon="4.098">
        <ele>530.7</ele>
        <time>2025-12-02T22:15:24.881Z</time>
      </trkpt>
      <trkpt lat="45.29394" lon="4.09762">
        <ele>530.2</ele>
        <time>2025-12-02T22:16:28.345Z</time>
      </trkpt>
      <trkpt lat="45.29347" lon="4.09715">
        <ele>529.7</ele>
        <time>2025-12-02T22:17:25.717Z</time>
      </trkpt>
      <trkpt lat="45.29242" lon="4.097">
        <ele>524.5</ele>
        <time>2025-12-02T22:19:11.852Z</time>
      </trkpt>
      <trkpt lat="45.29193" lon="4.09742">
        <ele>520.1</ele>
        <time>2025-12-02T22:20:09.199Z</time>
      </trkpt>
      <trkpt lat="45.29113" lon="4.09764">
        <ele>515.4</ele>
        <time>2025-12-02T22:21:31.209Z</time>
      </trkpt>
      <trkpt lat="45.29056" lon="4.09793">
        <ele>512.7</ele>
        <time>2025-12-02T22:22:31.419Z</time>
      </trkpt>
      <trkpt lat="45.28993" lon="4.09795">
        <ele>510.5</ele>
        <time>2025-12-02T22:23:34.504Z</time>
      </trkpt>
      <trkpt lat="45.28978" lon="4.09785">
        <ele>509.9</ele>
        <time>2025-12-02T22:23:51.640Z</time>
      </trkpt>
      <trkpt lat="45.28961" lon="4.09716">
        <ele>513.6</ele>
        <time>2025-12-02T22:24:42.967Z</time>
      </trkpt>
      <trkpt lat="45.28943" lon="4.09658">
        <ele>517.3</ele>
        <time>2025-12-02T22:25:27.862Z</time>
      </trkpt>
      <trkpt lat="45.28936" lon="4.09609">
        <ele>520.4</ele>
        <time>2025-12-02T22:26:02.693Z</time>
      </trkpt>
      <trkpt lat="45.28914" lon="4.09614">
        <ele>515.7</ele>
        <time>2025-12-02T22:26:26.150Z</time>
      </trkpt>
      <trkpt lat="45.28928" lon="4.09719">
        <ele>509.8</ele>
        <time>2025-12-02T22:27:41.883Z</time>
      </trkpt>
      <trkpt lat="45.28927" lon="4.09795">
        <ele>506.6</ele>
        <time>2025-12-02T22:28:34.994Z</time>
      </trkpt>
      <trkpt lat="45.28951" lon="4.09822">
        <ele>507.5</ele>
        <time>2025-12-02T22:29:05.427Z</time>
      </trkpt>
      <trkpt lat="45.28948" lon="4.09877">
        <ele>512.5</ele>
        <time>2025-12-02T22:29:44.939Z</time>
      </trkpt>
      <trkpt lat="45.28887" lon="4.10051">
        <ele>532.6</ele>
        <time>2025-12-02T22:32:03.412Z</time>
      </trkpt>
      <trkpt lat="45.28839" lon="4.10179">
        <ele>530</ele>
        <time>2025-12-02T22:33:44.696Z</time>
      </trkpt>
      <trkpt lat="45.28869" lon="4.10199">
        <ele>535.9</ele>
        <time>2025-12-02T22:34:18.345Z</time>
      </trkpt>
      <trkpt lat="45.28906" lon="4.10297">
        <ele>538.2</ele>
        <time>2025-12-02T22:35:36.508Z</time>
      </trkpt>
      <trkpt lat="45.28973" lon="4.10421">
        <ele>534.7</ele>
        <time>2025-12-02T22:37:26.839Z</time>
      </trkpt>
      <trkpt lat="45.2899" lon="4.10476">
        <ele>529.5</ele>
        <time>2025-12-02T22:38:09.610Z</time>
      </trkpt>
      <trkpt lat="45.2904" lon="4.10539">
        <ele>522.2</ele>
        <time>2025-12-02T22:39:16.505Z</time>
      </trkpt>
      <trkpt lat="45.29132" lon="4.1058">
        <ele>512.1</ele>
        <time>2025-12-02T22:40:53.828Z</time>
      </trkpt>
      <trkpt lat="45.29237" lon="4.10585">
        <ele>508.2</ele>
        <time>2025-12-02T22:42:39.126Z</time>
      </trkpt>
      <trkpt lat="45.29318" lon="4.10574">
        <ele>510.2</ele>
        <time>2025-12-02T22:43:59.876Z</time>
      </trkpt>
      <trkpt lat="45.29462" lon="4.10623">
        <ele>505.1</ele>
        <time>2025-12-02T22:46:28.112Z</time>
      </trkpt>
      <trkpt lat="45.29578" lon="4.10668">
        <ele>504</ele>
        <time>2025-12-02T22:48:28.449Z</time>
      </trkpt>
      <trkpt lat="45.29655" lon="4.10666">
        <ele>496.2</ele>
        <time>2025-12-02T22:49:46.437Z</time>
      </trkpt>
      <trkpt lat="45.29698" lon="4.10719">
        <ele>489.6</ele>
        <time>2025-12-02T22:50:42.953Z</time>
      </trkpt>
      <trkpt lat="45.2985" lon="4.10711">
        <ele>476.3</ele>
        <time>2025-12-02T22:53:16.338Z</time>
      </trkpt>
      <trkpt lat="45.29893" lon="4.10699">
        <ele>473.7</ele>
        <time>2025-12-02T22:53:59.758Z</time>
      </trkpt>
      <trkpt lat="45.29946" lon="4.10709">
        <ele>472.2</ele>
        <time>2025-12-02T22:54:53.460Z</time>
      </trkpt>
      <trkpt lat="45.30003" lon="4.10708">
        <ele>472.5</ele>
        <time>2025-12-02T22:55:50.217Z</time>
      </trkpt>
      <trkpt lat="45.30054" lon="4.10747">
        <ele>471.1</ele>
        <time>2025-12-02T22:56:48.085Z</time>
      </trkpt>
      <trkpt lat="45.30065" lon="4.10793">
        <ele>469.3</ele>
        <time>2025-12-02T22:57:22.755Z</time>
      </trkpt>
      <trkpt lat="45.301" lon="4.10829">
        <ele>468.2</ele>
        <time>2025-12-02T22:58:05.146Z</time>
      </trkpt>
      <trkpt lat="45.30107" lon="4.10896">
        <ele>465.8</ele>
        <time>2025-12-02T22:58:53.196Z</time>
      </trkpt>
      <trkpt lat="45.30045" lon="4.10993">
        <ele>462.8</ele>
        <time>2025-12-02T23:00:26.001Z</time>
      </trkpt>
      <trkpt lat="45.30055" lon="4.11118">
        <ele>459.8</ele>
        <time>2025-12-02T23:01:54.661Z</time>
      </trkpt>
      <trkpt lat="45.30025" lon="4.11139">
        <ele>459</ele>
        <time>2025-12-02T23:02:28.578Z</time>
      </trkpt>
      <trkpt lat="45.30029" lon="4.11232">
        <ele>456.5</ele>
        <time>2025-12-02T23:03:34.484Z</time>
      </trkpt>
      <trkpt lat="45.30074" lon="4.1139">
        <ele>452.8</ele>
        <time>2025-12-02T23:05:34.060Z</time>
      </trkpt>
      <trkpt lat="45.30187" lon="4.11412">
        <ele>451.8</ele>
        <time>2025-12-02T23:07:28.728Z</time>
      </trkpt>
      <trkpt lat="45.30275" lon="4.11403">
        <ele>450.9</ele>
        <time>2025-12-02T23:08:56.417Z</time>
      </trkpt>
      <trkpt lat="45.30292" lon="4.11497">
        <ele>447.6</ele>
        <time>2025-12-02T23:10:04.951Z</time>
      </trkpt>
      <trkpt lat="45.30399" lon="4.11503">
        <ele>447.7</ele>
        <time>2025-12-02T23:11:53.027Z</time>
      </trkpt>
      <trkpt lat="45.30514" lon="4.11453">
        <ele>448.1</ele>
        <time>2025-12-02T23:13:53.306Z</time>
      </trkpt>
      <trkpt lat="45.30546" lon="4.11514">
        <ele>444.6</ele>
        <time>2025-12-02T23:14:47.131Z</time>
      </trkpt>
    </trkseg>
  </trk>
</gpx>